Terminal Aerodrome Forecast
Issued by NWS Cleveland, OH

Home | Current Version | Previous Version | Text Only | Print | Product List | Glossary On
Versions: 1 2 3 4 5 6 7 8 9 10 11 12 13 14 15 16 17 18 19
183
FTUS41 KCLE 201157 CCA
TAFERI
TAF COR
KERI 201157Z 2012/2112 22012KT P6SM SCT025 OVC035
      TEMPO 2012/2014 BKN025
     FM201600 22015G25KT P6SM SCT035 BKN120
     FM210100 19018G30KT P6SM SCT250=

USA.gov is the U.S. government's official web portal to all federal, state and local government web resources and services.